This is the latest recevied weather packets stored in our database for station/object KI4UEM. If no packets are shown the sender has not sent any weather packets the latest 10 day(s).
| Time | Temp. | Humidity | Pressure | Rain* | Wind** | Luminosity | Snow |
|---|---|---|---|---|---|---|---|
| 1777719616 | 13.89° C | 93% | 1011.9 hPa | 0.76 mm | - | 1 W/m² | - |
| 1777716015 | 14.44° C | 93% | 1011.9 hPa | 2.03 mm | - | 0 W/m² | - |
| 1777715415 | 14.44° C | 92% | 1012.2 hPa | 2.03 mm | - | 0 W/m² | - |
| 1777709417 | 15° C | 92% | 1012.8 hPa | 2.54 mm | - | 0 W/m² | - |
| 1777705217 | 15.56° C | 90% | 1012.8 hPa | 1.52 mm | - | 0 W/m² | - |
| 1777704017 | 15.56° C | 89% | 1013.1 hPa | 1.27 mm | - | 0 W/m² | - |
| 1777703417 | 16.11° C | 89% | 1013.2 hPa | 1.02 mm | - | 0 W/m² | - |
| 1777702837 | 16.11° C | 89% | 1013.4 hPa | 1.02 mm | - | 0 W/m² | - |
| 1777697417 | 16.11° C | 87% | 1013.7 hPa | 0 mm | - | 0 W/m² | - |
| 1777695617 | 16.11° C | 87% | 1013.3 hPa | 0 mm | - | 0 W/m² | - |
| 1777694417 | 16.67° C | 87% | 1013.2 hPa | 0 mm | - | 0 W/m² | - |
| 1777689617 | 16.67° C | 84% | 1013.9 hPa | 0 mm | - | 0 W/m² | - |
| 1777689017 | 16.67° C | 83% | 1014 hPa | 0 mm | - | 0 W/m² | - |
| 1777687217 | 16.67° C | 82% | 1013.9 hPa | 0 mm | - | 0 W/m² | - |
| 1777680017 | 18.33° C | 75% | 1012.8 hPa | 0 mm | - | 3 W/m² | - |
| 1777679417 | 18.33° C | 75% | 1012.5 hPa | 0 mm | - | 21 W/m² | - |
| 1777678217 | 18.89° C | 74% | 1012.4 hPa | 0 mm | - | 34 W/m² | - |
| 1777675817 | 18.89° C | 73% | 1012.8 hPa | 0 mm | - | 48 W/m² | - |
| 1777672817 | 19.44° C | 71% | 1013.3 hPa | 0 mm | - | 57 W/m² | - |
| 1777666216 | 19.44° C | 70% | 1013.4 hPa | 0 mm | - | 225 W/m² | - |
| 1777665016 | 19.44° C | 70% | 1013.8 hPa | 0 mm | - | 224 W/m² | - |
| 1777659616 | 20° C | 70% | 1014.2 hPa | 0 mm | - | 115 W/m² | - |
| 1777658437 | 20° C | 69% | 1014.3 hPa | 0 mm | - | 298 W/m² | - |
| 1777656016 | 20° C | 69% | 1014.1 hPa | 0 mm | - | 418 W/m² | - |
| 1777652436 | 19.44° C | 71% | 1015.2 hPa | 0 mm | - | 201 W/m² | - |
* Rain latest hour (hover to see other rain measurements)
** Current wind speed in m/s (hover to see current wind gust speed)